Time;durP1;ratioP1;P1;durP2;ratioP2;P2;SDS_P1;SDS_P2;PMS_P1;PMS_P2;Temp;Humidity;BMP_temperature;BMP_pressure;BME280_temperature;BME280_humidity;BME280_pressure;Samples;Min_cycle;Max_cycle;Signal;HPM_P1;HPM_P2
2023/08/28 00:01:16;;;;;;;7.53;4.60;;;;;;;24.27;58.79;94335.34;5050663;28;20221;-44
2023/08/28 00:03:44;;;;;;;7.85;4.20;;;;;;;24.19;59.36;94328.66;5051034;28;20660;-43
2023/08/28 00:06:11;;;;;;;5.90;4.65;;;;;;;24.01;59.53;94318.34;5051073;28;20199;-44
2023/08/28 00:08:39;;;;;;;5.32;3.72;;;;;;;24.03;59.78;94329.34;5050837;28;20245;-43
2023/08/28 00:11:06;;;;;;;6.20;4.38;;;;;;;23.95;60.09;94321.88;5051025;28;20214;-44
2023/08/28 00:13:33;;;;;;;7.82;4.32;;;;;;;23.96;60.45;94326.06;5050367;28;20658;-43
2023/08/28 00:16:00;;;;;;;10.48;4.40;;;;;;;23.88;60.38;94326.44;5050811;28;20689;-43
2023/08/28 00:18:26;;;;;;;6.40;4.47;;;;;;;23.82;60.42;94322.13;5050796;28;20513;-43
2023/08/28 00:20:53;;;;;;;5.60;4.47;;;;;;;23.58;61.17;94296.00;5050908;28;20248;-43
2023/08/28 00:23:20;;;;;;;4.72;3.90;;;;;;;23.71;60.48;94327.13;5050516;28;20751;-43
2023/08/28 00:25:48;;;;;;;5.80;3.92;;;;;;;23.61;60.43;94311.19;5050672;28;20210;-42
2023/08/28 00:28:15;;;;;;;5.97;4.40;;;;;;;23.66;61.00;94327.03;5050358;28;20234;-43
2023/08/28 00:30:42;;;;;;;6.32;3.70;;;;;;;23.63;60.75;94322.22;5050694;28;20199;-43
2023/08/28 00:33:09;;;;;;;4.32;3.92;;;;;;;23.60;61.17;94320.03;5050216;28;20227;-44
2023/08/28 00:35:36;;;;;;;8.40;4.20;;;;;;;23.58;61.83;94323.91;5050371;28;20210;-44
2023/08/28 00:38:03;;;;;;;6.70;4.03;;;;;;;23.55;62.30;94330.38;5051181;28;20654;-43
2023/08/28 00:40:29;;;;;;;5.70;4.10;;;;;;;23.50;62.57;94336.28;5050408;28;20606;-43
2023/08/28 00:42:57;;;;;;;4.47;3.88;;;;;;;23.38;62.60;94329.47;5050448;28;20601;-43
2023/08/28 00:45:25;;;;;;;6.75;4.32;;;;;;;23.40;62.89;94343.88;5050018;28;20195;-44
2023/08/28 00:47:51;;;;;;;8.25;5.65;;;;;;;23.36;63.16;94340.13;5050392;28;20260;-44
2023/08/28 00:50:19;;;;;;;12.15;6.10;;;;;;;23.33;63.64;94347.63;5049547;28;20249;-43
2023/08/28 00:52:46;;;;;;;7.82;5.28;;;;;;;23.10;63.58;94328.31;5050195;28;20194;-44
2023/08/28 00:55:12;;;;;;;8.40;5.28;;;;;;;23.16;63.65;94339.66;5049745;28;20195;-44
2023/08/28 00:57:39;;;;;;;9.63;5.75;;;;;;;23.11;63.76;94345.53;5050169;28;20195;-44
2023/08/28 01:00:10;;;;;;;8.27;4.95;;;;;;;23.07;63.94;94333.97;5049943;28;20190;-44
2023/08/28 01:02:38;;;;;;;5.63;4.82;;;;;;;22.95;64.10;94323.50;5049902;28;20226;-43
2023/08/28 01:05:05;;;;;;;9.10;5.05;;;;;;;22.84;64.68;94315.59;5049648;28;20665;-43
2023/08/28 01:07:40;;;;;;;7.57;5.00;;;;;;;22.89;64.48;94324.38;5049748;28;20202;-42
2023/08/28 01:10:14;;;;;;;7.35;5.47;;;;;;;22.83;65.00;94321.84;5049663;28;20194;-41
2023/08/28 01:12:48;;;;;;;7.47;5.95;;;;;;;22.74;64.83;94313.53;5050039;28;20187;-45
2023/08/28 01:15:18;;;;;;;12.07;6.63;;;;;;;22.61;65.13;94309.28;5049670;28;20191;-42
2023/08/28 01:17:47;;;;;;;8.88;6.03;;;;;;;22.70;65.06;94328.03;5049751;28;20195;-43
2023/08/28 01:20:16;;;;;;;7.22;5.20;;;;;;;22.67;65.37;94329.28;5049634;28;20607;-43
2023/08/28 01:22:51;;;;;;;11.02;4.95;;;;;;;22.65;65.64;94320.09;5049527;28;20230;-43
2023/08/28 01:25:20;;;;;;;11.63;5.55;;;;;;;22.62;65.80;94323.91;5049758;28;20178;-42
2023/08/28 01:27:47;;;;;;;8.25;5.35;;;;;;;22.61;65.95;94319.72;5049496;28;20190;-43
2023/08/28 01:30:16;;;;;;;10.27;5.18;;;;;;;22.40;66.08;94297.53;5049173;28;20261;-43
2023/08/28 01:32:44;;;;;;;6.70;5.07;;;;;;;22.20;65.89;94269.16;5049577;28;20208;-43
2023/08/28 01:35:13;;;;;;;6.22;4.90;;;;;;;22.50;66.21;94312.66;5049604;28;20194;-42
2023/08/28 01:37:52;;;;;;;7.72;5.20;;;;;;;22.46;66.27;94307.09;5049442;28;20193;-42
2023/08/28 01:40:26;;;;;;;6.22;4.40;;;;;;;22.43;66.22;94312.75;5049144;28;20202;-43
2023/08/28 01:42:53;;;;;;;7.47;5.13;;;;;;;22.39;66.41;94305.59;5049234;28;20226;-42
2023/08/28 01:45:21;;;;;;;5.80;4.85;;;;;;;22.38;66.65;94307.41;5048993;28;20300;-44
2023/08/28 01:47:49;;;;;;;8.75;5.40;;;;;;;22.35;66.83;94305.22;5049311;28;20179;-44
2023/08/28 01:50:16;;;;;;;8.48;4.70;;;;;;;22.27;66.81;94287.28;5049303;28;20187;-43
2023/08/28 01:52:43;;;;;;;12.35;4.93;;;;;;;22.22;67.04;94287.16;5049250;28;20277;-43
2023/08/28 01:55:10;;;;;;;8.15;5.20;;;;;;;22.26;67.36;94296.13;5049427;28;20278;-44
2023/08/28 01:57:38;;;;;;;6.95;5.13;;;;;;;22.22;67.61;94300.97;5049588;28;20187;-42
2023/08/28 02:00:06;;;;;;;12.55;6.78;;;;;;;22.20;67.49;94297.00;5048916;28;20253;-43
2023/08/28 02:02:32;;;;;;;8.90;5.38;;;;;;;22.14;67.81;94300.47;5052273;28;20211;-43
2023/08/28 02:04:59;;;;;;;10.13;5.88;;;;;;;22.14;67.81;94303.06;5053301;28;20191;-44
2023/08/28 02:07:26;;;;;;;6.25;5.43;;;;;;;22.09;68.07;94298.50;5053259;28;20187;-43
2023/08/28 02:09:53;;;;;;;9.07;5.65;;;;;;;22.04;68.00;94290.56;5053448;28;20198;-43
2023/08/28 02:12:19;;;;;;;14.07;6.22;;;;;;;22.09;67.92;94292.50;5053050;28;20239;-43
2023/08/28 02:14:48;;;;;;;11.30;6.13;;;;;;;21.90;68.09;94276.91;5053168;28;20229;-42
2023/08/28 02:17:15;;;;;;;12.57;6.00;;;;;;;22.02;68.28;94293.38;5052744;28;20198;-43
2023/08/28 02:19:41;;;;;;;12.65;6.07;;;;;;;22.01;68.54;94289.16;5053238;28;20260;-43
2023/08/28 02:22:08;;;;;;;12.27;6.57;;;;;;;22.00;68.79;94295.41;5052847;28;20261;-44
2023/08/28 02:24:35;;;;;;;9.80;5.78;;;;;;;21.99;68.74;94287.81;5052863;28;20215;-44
2023/08/28 02:27:02;;;;;;;10.43;6.13;;;;;;;21.97;68.73;94295.81;5052790;28;20207;-43
2023/08/28 02:29:29;;;;;;;9.82;5.35;;;;;;;21.96;68.81;94299.44;5053194;28;20226;-43
2023/08/28 02:31:57;;;;;;;6.57;4.88;;;;;;;21.93;69.12;94286.84;5053078;28;20202;-44
2023/08/28 02:34:24;;;;;;;8.85;5.00;;;;;;;21.91;69.11;94291.50;5052924;28;20191;-42
2023/08/28 02:36:51;;;;;;;13.68;5.53;;;;;;;21.85;69.18;94276.75;5053096;28;20195;-43
2023/08/28 02:39:17;;;;;;;7.47;5.35;;;;;;;21.88;69.19;94283.31;5052998;28;20303;-42
2023/08/28 02:41:44;;;;;;;12.35;6.03;;;;;;;21.84;69.15;94288.16;5052969;28;20266;-44
2023/08/28 02:44:11;;;;;;;11.95;5.80;;;;;;;21.82;69.41;94279.00;5052237;28;20690;-43
2023/08/28 02:46:38;;;;;;;12.38;5.35;;;;;;;21.79;69.53;94283.59;5052371;28;20221;-42
2023/08/28 02:49:06;;;;;;;12.05;5.82;;;;;;;21.68;69.67;94268.72;5052358;28;20240;-44
2023/08/28 02:51:33;;;;;;;13.40;5.35;;;;;;;21.77;69.64;94284.84;5052658;28;20194;-42
2023/08/28 02:54:00;;;;;;;10.55;4.80;;;;;;;21.72;69.89;94282.91;5052291;28;20245;-43
2023/08/28 02:56:30;;;;;;;7.07;5.05;;;;;;;21.72;70.02;94277.69;5052571;28;20309;-43
2023/08/28 02:58:57;;;;;;;6.63;5.55;;;;;;;21.67;70.15;94280.13;5052247;28;20245;-43
2023/08/28 03:01:24;;;;;;;6.97;4.97;;;;;;;21.63;70.03;94280.78;5052354;28;20597;-42
2023/08/28 03:03:50;;;;;;;7.30;4.15;;;;;;;21.63;70.27;94283.38;5052130;28;20249;-43
2023/08/28 03:06:19;;;;;;;7.97;5.03;;;;;;;21.61;70.34;94288.00;5052745;28;20257;-51
2023/08/28 03:08:45;;;;;;;6.43;4.70;;;;;;;21.56;70.26;94287.88;5052174;28;20195;-42
2023/08/28 03:11:12;;;;;;;9.15;4.70;;;;;;;21.55;70.34;94289.69;5052140;28;20620;-41
2023/08/28 03:13:39;;;;;;;5.20;4.35;;;;;;;21.52;70.46;94297.91;5051148;28;20594;-42
2023/08/28 03:16:06;;;;;;;7.00;5.18;;;;;;;21.47;70.45;94293.34;5051530;28;20663;-42
2023/08/28 03:18:32;;;;;;;6.40;4.53;;;;;;;21.45;70.47;94295.34;5052179;28;20225;-41
2023/08/28 03:20:59;;;;;;;12.48;5.97;;;;;;;21.44;70.44;94304.19;5051760;28;20195;-42
2023/08/28 03:23:27;;;;;;;6.20;4.70;;;;;;;21.42;70.48;94303.59;5051972;28;20215;-45
2023/08/28 03:25:54;;;;;;;8.48;5.00;;;;;;;21.39;70.41;94298.03;5051618;28;20195;-44
2023/08/28 03:28:21;;;;;;;7.55;4.68;;;;;;;21.37;70.65;94297.44;5051915;28;20199;-45
2023/08/28 03:30:48;;;;;;;7.28;4.78;;;;;;;21.22;70.63;94271.75;5051364;28;20195;-42
2023/08/28 03:33:15;;;;;;;8.30;5.15;;;;;;;21.33;70.74;94286.69;5051937;28;20203;-43
2023/08/28 03:35:41;;;;;;;10.30;4.90;;;;;;;21.28;70.91;94289.88;5051349;28;20191;-43
2023/08/28 03:38:08;;;;;;;5.80;4.53;;;;;;;21.30;70.99;94292.28;5051864;28;20187;-44
2023/08/28 03:40:39;;;;;;;8.68;5.57;;;;;;;21.28;71.32;94289.88;5051285;28;20214;-43
2023/08/28 03:43:05;;;;;;;10.18;4.93;;;;;;;21.28;71.15;94291.69;5051565;28;20234;-42
2023/08/28 03:45:32;;;;;;;9.57;5.22;;;;;;;21.26;71.01;94284.09;5050870;28;20265;-43
2023/08/28 03:47:59;;;;;;;16.75;5.68;;;;;;;21.28;71.31;94284.66;5051521;28;20187;-44
2023/08/28 03:50:28;;;;;;;6.20;4.60;;;;;;;21.24;71.25;94280.09;5051162;28;20183;-44
2023/08/28 03:52:56;;;;;;;10.85;5.30;;;;;;;21.19;71.35;94283.34;5050786;28;20189;-42
2023/08/28 03:55:22;;;;;;;9.80;4.95;;;;;;;21.19;71.43;94277.34;5051216;28;20274;-43
2023/08/28 03:57:51;;;;;;;6.22;5.20;;;;;;;21.13;71.27;94278.22;5051233;28;20194;-43
2023/08/28 04:00:18;;;;;;;9.02;5.10;;;;;;;21.15;71.63;94287.38;5051153;28;20218;-43
2023/08/28 04:02:45;;;;;;;6.30;4.82;;;;;;;21.14;71.77;94293.59;5050903;28;20187;-44
2023/08/28 04:05:12;;;;;;;7.32;5.30;;;;;;;21.15;71.79;94284.78;5051020;28;20184;-42
2023/08/28 04:07:40;;;;;;;6.85;5.13;;;;;;;21.14;71.92;94288.41;5050653;28;20190;-42
2023/08/28 04:10:08;;;;;;;11.40;5.40;;;;;;;21.15;72.15;94289.97;5051013;28;20240;-43
2023/08/28 04:12:34;;;;;;;10.77;5.53;;;;;;;21.14;72.29;94285.78;5050552;28;20598;-42
2023/08/28 04:15:03;;;;;;;8.88;5.05;;;;;;;21.20;72.40;94286.75;5050626;28;20253;-44
2023/08/28 04:17:30;;;;;;;11.88;5.45;;;;;;;21.15;72.18;94276.97;5050690;28;20198;-42
2023/08/28 04:19:57;;;;;;;12.25;5.35;;;;;;;21.22;72.43;94285.53;5050734;28;20183;-43
2023/08/28 04:22:24;;;;;;;6.75;5.13;;;;;;;21.26;72.33;94280.69;5051424;28;20197;-43
2023/08/28 04:24:52;;;;;;;7.20;5.10;;;;;;;21.31;72.09;94280.84;5049697;28;20590;-44
2023/08/28 04:27:19;;;;;;;13.48;5.53;;;;;;;21.36;71.97;94280.25;5050884;28;20183;-43
2023/08/28 04:29:46;;;;;;;10.88;5.85;;;;;;;21.45;71.72;94289.34;5050355;28;20230;-44
2023/08/28 04:32:14;;;;;;;15.50;5.13;;;;;;;21.59;71.23;94279.59;5050763;28;20190;-44
2023/08/28 04:34:40;;;;;;;14.40;5.45;;;;;;;21.26;70.53;94205.28;5050198;28;20187;-43
2023/08/28 04:37:08;;;;;;;7.13;5.68;;;;;;;21.77;69.62;94272.63;5050540;28;20191;-43
2023/08/28 04:39:34;;;;;;;11.90;5.97;;;;;;;21.90;69.19;94274.28;5050131;28;20194;-45
2023/08/28 04:42:01;;;;;;;9.40;6.65;;;;;;;22.06;68.85;94283.31;5050473;28;20297;-43
2023/08/28 04:44:28;;;;;;;15.63;6.20;;;;;;;22.23;68.08;94289.53;5049957;28;20223;-42
2023/08/28 04:46:55;;;;;;;7.70;5.68;;;;;;;22.36;67.61;94296.38;5050565;28;20286;-43
2023/08/28 04:49:23;;;;;;;13.25;5.78;;;;;;;22.52;67.34;94295.00;5050241;28;20214;-43
2023/08/28 04:51:50;;;;;;;12.32;6.35;;;;;;;22.63;66.97;94298.66;5050094;28;20258;-44
2023/08/28 04:54:17;;;;;;;11.90;5.70;;;;;;;22.72;66.68;94298.13;5050312;28;20599;-45
2023/08/28 04:56:44;;;;;;;9.60;6.57;;;;;;;22.78;66.63;94305.03;5050007;28;20199;-44
2023/08/28 04:59:11;;;;;;;11.43;7.03;;;;;;;22.83;66.41;94300.97;5049606;28;20191;-43
2023/08/28 05:01:38;;;;;;;15.10;6.55;;;;;;;22.88;66.23;94308.91;5049718;28;20192;-43
2023/08/28 05:04:05;;;;;;;10.07;6.78;;;;;;;22.90;66.18;94310.31;5049732;28;20230;-43
2023/08/28 05:06:33;;;;;;;13.40;6.75;;;;;;;22.93;65.97;94303.88;5049598;28;20178;-42
2023/08/28 05:09:00;;;;;;;12.32;6.88;;;;;;;22.91;65.84;94298.06;5050166;28;20187;-44
2023/08/28 05:11:27;;;;;;;7.90;6.68;;;;;;;22.91;65.75;94295.47;5049580;28;20202;-45
2023/08/28 05:13:53;;;;;;;7.38;6.07;;;;;;;22.96;65.62;94290.38;5049746;28;20268;-43
2023/08/28 05:16:20;;;;;;;11.60;6.10;;;;;;;23.04;65.21;94279.63;5049791;28;20194;-43
2023/08/28 05:18:47;;;;;;;15.82;6.20;;;;;;;23.17;64.82;94279.41;5050031;28;20207;-44
2023/08/28 05:21:14;;;;;;;13.05;6.50;;;;;;;23.36;64.48;94279.28;5050026;28;20191;-43
2023/08/28 05:23:42;;;;;;;15.57;7.38;;;;;;;23.49;64.07;94271.25;5049695;28;20219;-43
2023/08/28 05:26:09;;;;;;;18.80;7.45;;;;;;;23.92;62.87;94285.75;5049538;28;20234;-43
2023/08/28 05:28:37;;;;;;;11.80;6.97;;;;;;;24.17;61.82;94290.69;5049453;28;20223;-44
2023/08/28 05:31:04;;;;;;;9.70;5.88;;;;;;;24.42;60.55;94293.03;5049373;28;20675;-45
2023/08/28 05:33:31;;;;;;;7.70;6.13;;;;;;;24.74;59.74;94294.16;5049625;28;20194;-46
2023/08/28 05:35:58;;;;;;;13.73;6.35;;;;;;;25.10;58.42;94288.75;5049135;28;20261;-44
2023/08/28 05:38:25;;;;;;;10.88;5.70;;;;;;;25.38;56.67;94299.13;5049963;28;20241;-44
2023/08/28 05:40:53;;;;;;;15.25;6.47;;;;;;;25.61;56.03;94289.50;5049527;28;20199;-45
2023/08/28 05:43:20;;;;;;;10.73;5.50;;;;;;;25.85;55.89;94284.88;5049155;28;20194;-44
2023/08/28 05:45:47;;;;;;;13.75;5.85;;;;;;;25.90;54.54;94284.94;5047462;28;20662;-45
2023/08/28 05:48:14;;;;;;;7.10;5.57;;;;;;;26.02;54.60;94272.50;5049486;28;20757;-44
2023/08/28 05:50:44;;;;;;;9.02;5.35;;;;;;;26.32;53.81;94274.69;5049532;28;20190;-43
2023/08/28 05:53:11;;;;;;;11.38;5.18;;;;;;;26.49;52.99;94270.19;5049057;28;20245;-45
2023/08/28 05:55:38;;;;;;;12.32;5.47;;;;;;;26.68;52.46;94272.47;5049154;28;20186;-43
2023/08/28 05:58:06;;;;;;;12.40;5.22;;;;;;;26.88;52.05;94270.03;5049337;28;20195;-44
2023/08/28 06:00:33;;;;;;;7.47;5.00;;;;;;;27.22;51.64;94270.59;5049319;28;20578;-44
2023/08/28 06:03:00;;;;;;;6.90;5.03;;;;;;;27.69;50.81;94271.69;5049424;28;20182;-44
2023/08/28 06:05:26;;;;;;;8.90;4.80;;;;;;;28.04;49.36;94273.72;5049469;28;20227;-43
2023/08/28 06:07:53;;;;;;;11.68;5.85;;;;;;;28.27;48.40;94272.50;5048951;28;20613;-44
2023/08/28 06:10:20;;;;;;;7.30;5.07;;;;;;;28.23;47.98;94276.69;5049285;28;20191;-44
2023/08/28 06:12:47;;;;;;;8.43;5.72;;;;;;;28.22;48.44;94277.72;5049066;28;20192;-45
2023/08/28 06:15:16;;;;;;;7.43;4.97;;;;;;;28.42;48.11;94282.31;5050400;28;20344;-42
2023/08/28 06:17:43;;;;;;;7.22;5.05;;;;;;;28.73;47.10;94283.94;5048895;28;20191;-43
2023/08/28 06:20:11;;;;;;;5.95;4.72;;;;;;;28.97;46.58;94291.38;5049376;28;20270;-45
2023/08/28 06:22:38;;;;;;;12.02;5.97;;;;;;;29.25;45.73;94297.97;5049617;28;20187;-43
2023/08/28 06:25:05;;;;;;;9.90;6.35;;;;;;;29.31;45.13;94298.75;5049165;28;20218;-45
2023/08/28 06:27:32;;;;;;;9.25;6.35;;;;;;;29.34;45.46;94306.94;5048932;28;20198;-44
2023/08/28 06:29:59;;;;;;;16.67;6.20;;;;;;;29.45;45.13;94299.81;5048761;28;20226;-43
2023/08/28 06:32:27;;;;;;;12.95;6.22;;;;;;;29.58;44.89;94301.13;5049021;28;20191;-45
2023/08/28 06:34:54;;;;;;;11.20;6.07;;;;;;;29.52;44.89;94289.78;5048841;28;20249;-45
2023/08/28 06:37:20;;;;;;;8.68;6.28;;;;;;;29.76;44.52;94297.16;5048984;28;20195;-44
2023/08/28 06:39:48;;;;;;;11.98;6.82;;;;;;;29.87;44.08;94302.13;5048779;28;20187;-44
2023/08/28 06:42:14;;;;;;;9.93;6.18;;;;;;;29.85;44.73;94304.25;5049207;28;20201;-44
2023/08/28 06:44:41;;;;;;;23.13;5.95;;;;;;;29.93;43.92;94298.44;5048815;28;20243;-44
2023/08/28 06:47:08;;;;;;;12.60;5.30;;;;;;;29.94;44.00;94301.88;5049063;28;20191;-45
2023/08/28 06:49:38;;;;;;;8.43;6.03;;;;;;;29.69;43.92;94234.97;5051492;28;20193;-43
2023/08/28 06:52:13;;;;;;;17.83;6.45;;;;;;;30.24;44.05;94295.72;5052391;28;20714;-43
2023/08/28 06:54:43;;;;;;;11.50;5.93;;;;;;;30.25;43.26;94289.38;5052125;28;20296;-43
2023/08/28 06:57:10;;;;;;;8.77;5.75;;;;;;;30.13;43.44;94292.28;5052475;28;20562;-43
2023/08/28 06:59:38;;;;;;;11.68;6.28;;;;;;;30.31;43.46;94296.22;5052058;28;20191;-43
2023/08/28 07:02:05;;;;;;;21.35;5.88;;;;;;;30.39;43.19;94294.84;5052465;28;20187;-42
2023/08/28 07:04:32;;;;;;;8.65;5.80;;;;;;;30.48;42.15;94296.69;5052352;28;20227;-43
2023/08/28 07:07:00;;;;;;;11.15;5.97;;;;;;;30.41;42.34;94290.09;5052327;28;20183;-43
2023/08/28 07:09:26;;;;;;;9.52;5.38;;;;;;;30.42;42.93;94287.19;5052277;28;20677;-43
2023/08/28 07:11:53;;;;;;;12.32;5.72;;;;;;;30.70;42.61;94292.84;5052293;28;20187;-43
2023/08/28 07:14:20;;;;;;;8.82;4.93;;;;;;;30.97;42.18;94293.22;5051920;28;20190;-43
2023/08/28 07:16:47;;;;;;;10.50;5.30;;;;;;;31.14;41.58;94295.50;5051939;28;20187;-44
2023/08/28 07:19:13;;;;;;;7.50;5.32;;;;;;;31.28;41.02;94297.50;5051965;28;20247;-42
2023/08/28 07:21:40;;;;;;;9.40;5.72;;;;;;;31.30;41.13;94295.38;5052045;28;20191;-44
2023/08/28 07:24:09;;;;;;;10.65;5.85;;;;;;;31.15;41.09;94291.00;5051981;28;20237;-44
2023/08/28 07:26:36;;;;;;;9.27;5.80;;;;;;;31.12;40.95;94297.59;5051588;28;20188;-43
2023/08/28 07:29:03;;;;;;;9.68;5.15;;;;;;;31.12;41.05;94305.53;5052047;28;20250;-42
2023/08/28 07:31:30;;;;;;;8.07;5.45;;;;;;;31.21;41.03;94295.94;5051296;28;20198;-44
2023/08/28 07:33:59;;;;;;;6.97;4.90;;;;;;;31.38;40.42;94295.56;5051827;28;20237;-44
2023/08/28 07:36:25;;;;;;;7.68;5.15;;;;;;;31.58;40.35;94299.13;5051402;28;20815;-44
2023/08/28 07:38:52;;;;;;;8.45;5.03;;;;;;;31.72;40.12;94298.16;5052227;28;20286;-44
2023/08/28 07:41:21;;;;;;;9.52;5.65;;;;;;;31.98;39.93;94303.22;5051622;28;20191;-43
2023/08/28 07:43:47;;;;;;;15.13;5.60;;;;;;;32.27;39.08;94294.44;5051245;28;20184;-44
2023/08/28 07:46:14;;;;;;;11.40;5.82;;;;;;;32.30;39.10;94304.44;5051548;28;20664;-44
2023/08/28 07:48:41;;;;;;;16.35;5.55;;;;;;;32.18;39.22;94296.94;5050987;28;20184;-43
2023/08/28 07:51:09;;;;;;;14.55;5.63;;;;;;;32.08;39.19;94289.91;5051660;28;20265;-45
2023/08/28 07:53:36;;;;;;;8.05;5.47;;;;;;;32.15;39.91;94294.84;5051526;28;20202;-44
2023/08/28 07:56:03;;;;;;;13.13;5.40;;;;;;;32.24;39.05;94301.06;5051745;28;20240;-44
2023/08/28 07:58:31;;;;;;;7.63;5.40;;;;;;;32.23;39.06;94304.81;5051006;28;20298;-44
2023/08/28 08:00:59;;;;;;;7.78;5.47;;;;;;;32.38;39.11;94307.28;5050666;28;20195;-45
2023/08/28 08:03:26;;;;;;;10.75;5.15;;;;;;;32.75;39.22;94302.31;5051016;28;20562;-44
2023/08/28 08:05:55;;;;;;;6.82;4.30;;;;;;;33.01;38.60;94300.91;5051181;28;20702;-45
2023/08/28 08:08:22;;;;;;;9.98;4.72;;;;;;;33.19;38.10;94294.00;5052176;28;20655;-44
2023/08/28 08:10:50;;;;;;;7.53;5.15;;;;;;;33.18;37.87;94295.88;5051201;28;20187;-43
2023/08/28 08:13:18;;;;;;;9.82;5.50;;;;;;;33.13;38.46;94300.47;5050274;28;20191;-45
2023/08/28 08:15:46;;;;;;;10.20;4.80;;;;;;;33.22;38.52;94293.44;5050623;28;20643;-44
2023/08/28 08:18:15;;;;;;;6.05;4.63;;;;;;;33.57;37.91;94310.66;5050842;28;20183;-45
2023/08/28 08:20:43;;;;;;;15.20;5.82;;;;;;;33.73;37.51;94299.78;5050305;28;20252;-41
2023/08/28 08:23:12;;;;;;;9.75;5.72;;;;;;;33.75;37.30;94300.25;5051122;28;20191;-44
2023/08/28 08:25:39;;;;;;;11.80;4.60;;;;;;;33.72;37.54;94298.97;5049985;28;20223;-43
2023/08/28 08:28:06;;;;;;;8.25;5.15;;;;;;;33.66;37.60;94297.50;5050205;28;20195;-44
2023/08/28 08:30:35;;;;;;;8.23;4.75;;;;;;;33.74;37.16;94291.53;5050273;28;20219;-45
2023/08/28 08:33:04;;;;;;;6.32;4.63;;;;;;;33.64;37.16;94287.19;5050519;28;20634;-44
2023/08/28 08:35:31;;;;;;;8.48;4.65;;;;;;;33.35;37.68;94289.25;5050249;28;20669;-44
2023/08/28 08:37:58;;;;;;;6.82;4.38;;;;;;;33.25;37.92;94286.75;5050756;28;20210;-44
2023/08/28 08:40:28;;;;;;;7.90;4.88;;;;;;;33.35;37.44;94283.94;5049837;28;20191;-44
2023/08/28 08:42:56;;;;;;;5.53;4.60;;;;;;;33.36;37.82;94288.94;5050465;28;20199;-43
2023/08/28 08:45:30;;;;;;;8.52;5.28;;;;;;;33.37;37.37;94273.81;5049961;28;20225;-44
2023/08/28 08:48:00;;;;;;;11.52;5.00;;;;;;;33.39;37.30;94279.66;5049902;28;20179;-44
2023/08/28 08:50:31;;;;;;;8.20;4.68;;;;;;;33.32;37.42;94268.63;5050432;28;20184;-44
2023/08/28 08:53:05;;;;;;;8.77;5.65;;;;;;;33.56;37.18;94274.59;5050119;28;20676;-44
2023/08/28 08:55:41;;;;;;;9.10;5.15;;;;;;;33.72;37.17;94267.13;5050007;28;20241;-44
2023/08/28 08:58:15;;;;;;;11.27;5.00;;;;;;;33.68;36.77;94251.03;5050069;28;20234;-44
2023/08/28 09:00:47;;;;;;;13.43;5.43;;;;;;;33.77;36.92;94256.47;5049656;28;20213;-43
2023/08/28 09:03:16;;;;;;;7.80;5.35;;;;;;;33.94;36.88;94256.66;5049984;28;20193;-44
2023/08/28 09:05:45;;;;;;;12.50;5.55;;;;;;;34.16;36.29;94258.63;5049748;28;20234;-45
2023/08/28 09:08:15;;;;;;;9.45;5.00;;;;;;;34.26;36.04;94251.53;5050332;28;20602;-43
2023/08/28 09:10:45;;;;;;;7.45;4.57;;;;;;;34.20;35.54;94250.88;5049543;28;20636;-43
2023/08/28 09:13:12;;;;;;;6.28;4.57;;;;;;;34.15;35.61;94243.00;5049683;28;20187;-45
2023/08/28 09:15:39;;;;;;;10.88;5.15;;;;;;;34.15;36.10;94237.69;5049695;28;20198;-44
2023/08/28 09:18:06;;;;;;;7.47;4.43;;;;;;;34.17;35.67;94243.50;5049901;28;20202;-45
2023/08/28 09:20:34;;;;;;;8.48;4.97;;;;;;;34.06;35.71;94234.16;5049391;28;20221;-43
2023/08/28 09:23:02;;;;;;;8.02;4.50;;;;;;;34.05;35.68;94235.25;5049433;28;20191;-45
2023/08/28 09:25:29;;;;;;;5.85;4.60;;;;;;;34.11;35.32;94231.38;5049594;28;20207;-45
2023/08/28 09:27:56;;;;;;;6.47;4.05;;;;;;;34.23;34.80;94220.28;5049427;28;20183;-45
2023/08/28 09:30:31;;;;;;;6.38;3.75;;;;;;;34.29;34.51;94217.22;5049064;28;20313;-44
2023/08/28 09:32:59;;;;;;;5.82;4.22;;;;;;;34.13;34.54;94203.47;5049850;28;20620;-44
2023/08/28 09:35:28;;;;;;;7.65;4.55;;;;;;;34.14;34.38;94199.72;5049449;28;20278;-44
2023/08/28 09:37:59;;;;;;;9.40;4.70;;;;;;;34.20;34.13;94203.09;5049222;28;20191;-43
2023/08/28 09:40:29;;;;;;;5.72;3.85;;;;;;;34.19;33.71;94209.47;5049165;28;20204;-43
2023/08/28 09:42:57;;;;;;;10.27;4.40;;;;;;;34.01;33.74;94211.16;5049267;28;20249;-45
2023/08/28 09:45:24;;;;;;;7.07;4.30;;;;;;;33.91;34.33;94198.84;5049200;28;20226;-44
2023/08/28 09:47:54;;;;;;;8.00;4.43;;;;;;;33.97;34.19;94204.88;5049349;28;20221;-44
2023/08/28 09:50:24;;;;;;;7.85;4.05;;;;;;;33.88;34.07;94204.75;5049008;28;20215;-42
2023/08/28 09:52:51;;;;;;;8.50;4.20;;;;;;;33.80;34.12;94189.53;5049158;28;20753;-44
2023/08/28 09:55:18;;;;;;;8.10;3.90;;;;;;;33.79;33.98;94187.19;5049177;28;20187;-44
2023/08/28 09:57:46;;;;;;;8.90;3.80;;;;;;;33.68;34.30;94184.72;5049565;28;20693;-43
2023/08/28 10:00:14;;;;;;;7.60;4.53;;;;;;;33.70;33.89;94179.13;5049310;28;20519;-43
2023/08/28 10:02:41;;;;;;;3.92;3.53;;;;;;;33.65;33.49;94182.66;5049163;28;20179;-46
2023/08/28 10:05:10;;;;;;;6.43;4.03;;;;;;;33.56;33.87;94179.13;5049314;28;20597;-44
2023/08/28 10:07:39;;;;;;;6.03;3.65;;;;;;;33.53;33.95;94174.41;5048637;28;20278;-43
2023/08/28 10:10:11;;;;;;;6.75;4.03;;;;;;;33.62;33.55;94167.31;5049284;28;20214;-45
2023/08/28 10:12:41;;;;;;;5.10;4.03;;;;;;;33.64;33.56;94172.34;5048945;28;20187;-44
2023/08/28 10:15:11;;;;;;;5.53;3.97;;;;;;;33.57;33.49;94161.34;5048899;28;20687;-43
2023/08/28 10:17:40;;;;;;;8.43;4.18;;;;;;;33.57;33.68;94156.03;5049177;28;20183;-44
2023/08/28 10:20:10;;;;;;;7.15;3.75;;;;;;;33.62;33.43;94159.38;5048878;28;20198;-44
2023/08/28 10:22:39;;;;;;;5.35;4.07;;;;;;;33.63;33.40;94163.59;5048818;28;20233;-43
2023/08/28 10:25:07;;;;;;;6.65;3.97;;;;;;;33.65;33.75;94156.13;5052532;28;20246;-43
2023/08/28 10:27:36;;;;;;;6.97;3.75;;;;;;;33.64;33.66;94154.56;5052915;28;20191;-43
2023/08/28 10:30:04;;;;;;;6.38;3.83;;;;;;;33.62;33.47;94153.28;5052679;28;20226;-43
2023/08/28 10:32:33;;;;;;;5.75;3.95;;;;;;;33.57;33.86;94153.38;5052651;28;20621;-44
2023/08/28 10:35:01;;;;;;;9.48;3.65;;;;;;;33.58;33.79;94153.09;5052555;28;20179;-45
2023/08/28 10:37:31;;;;;;;5.53;4.05;;;;;;;33.52;33.68;94143.66;5052477;28;20206;-44
2023/08/28 10:39:58;;;;;;;4.68;3.45;;;;;;;33.49;33.82;94132.88;5052584;28;20268;-42
2023/08/28 10:42:27;;;;;;;5.68;4.15;;;;;;;33.51;33.99;94126.19;5052488;28;20191;-43
2023/08/28 10:44:54;;;;;;;6.75;3.47;;;;;;;33.55;33.32;94126.38;5052579;28;20202;-43
2023/08/28 10:47:21;;;;;;;9.98;4.43;;;;;;;33.47;32.77;94105.88;5052537;28;20205;-44
2023/08/28 10:49:53;;;;;;;6.05;4.05;;;;;;;33.51;33.01;94118.25;5052378;28;20194;-44
2023/08/28 10:52:22;;;;;;;5.20;3.72;;;;;;;33.41;32.83;94111.22;5052115;28;20191;-45
2023/08/28 10:54:50;;;;;;;5.43;3.45;;;;;;;33.55;32.87;94110.47;5052465;28;20195;-44
2023/08/28 10:57:24;;;;;;;7.63;4.20;;;;;;;33.64;32.77;94114.78;5052108;28;20194;-45
2023/08/28 10:59:51;;;;;;;6.25;3.47;;;;;;;33.67;32.25;94105.44;5052067;28;20190;-44
2023/08/28 11:02:19;;;;;;;6.38;3.50;;;;;;;33.60;31.79;94105.06;5051909;28;20198;-43
2023/08/28 11:04:46;;;;;;;5.63;3.75;;;;;;;33.57;32.07;94100.34;5052125;28;20248;-43
2023/08/28 11:07:45;;;;;;;5.97;4.13;;;;;;;33.60;32.63;94103.22;5052006;28;20300;-43
2023/08/28 11:10:25;;;;;;;8.48;4.28;;;;;;;33.66;32.62;94094.06;4990485;28;20691;-44
2023/08/28 11:12:53;;;;;;;5.63;4.68;;;;;;;33.74;32.53;94084.59;4990153;28;20608;-44
2023/08/28 11:15:36;;;;;;;5.82;4.65;;;;;;;33.83;33.15;94090.78;4990380;28;20189;-44
2023/08/28 11:18:27;;;;;;;8.38;4.40;;;;;;;33.80;33.16;94086.06;4988736;28;20329;-50
2023/08/28 11:20:54;;;;;;;4.95;4.28;;;;;;;33.78;33.44;94082.94;4990176;28;20255;-43
2023/08/28 11:23:25;;;;;;;7.30;4.53;;;;;;;33.76;33.21;94071.03;4990283;28;20267;-44
2023/08/28 11:25:53;;;;;;;7.47;4.05;;;;;;;33.86;33.32;94066.31;4989911;28;20220;-43
2023/08/28 11:28:29;;;;;;;8.15;4.88;;;;;;;33.93;33.11;94066.66;4989983;28;20197;-43
2023/08/28 11:31:00;;;;;;;8.30;4.15;;;;;;;33.86;32.97;94073.50;4989695;28;20554;-43
2023/08/28 11:33:27;;;;;;;7.18;3.97;;;;;;;33.86;32.72;94063.66;4990061;28;20193;-44
2023/08/28 11:35:59;;;;;;;7.93;4.57;;;;;;;33.85;32.54;94045.38;4989306;28;20669;-44